Owensville, IN (47665)

2:38 PM CDT on May 25, 2015 (GMT -0500)
Rural Princeton | | Change Station
CLOSE
Current Station
Personal Weather Station
Location: Princeton, IN
Elevation: 436 ft
Nearby Weather Stations

Elev 436 ft 38.30 °N, 87.59 °W | Updated 2 minutes ago

Overcast
Overcast
77.2 °F
Feels Like 79 °F
N
9.0
Wind Variable Wind from SSW
Gusts 11.0 mph

Today
High -- | Low -- °F
--% Chance of Precip.
Yesterday
High -- | Low -- °F
Precip. -- in
5:32 AM 8:03 PM
Waxing Crescent, 51% visible
Pressure 30.09 in
Visibility 10.0 miles
Clouds Scattered Clouds 2300 ft
Mostly Cloudy 4100 ft
Overcast 6500 ft
Heat Index 79 °F
Dew Point 69 °F
Humidity 76%
Rainfall 0.11 in
Snow Depth Not available.
UV 3 out of 12
Pollen 4.90 out of 12
Air Quality Not available.
Flu Activity Sporadic
METAR KEVV 251854Z 20009KT 10SM SCT023 BKN041 OVC065 24/19 A3010 RMK AO2 SLP187 T02440189

More Conditions Fewer Conditions

Pressure 30.09 in
Visibility 10.0 miles
Clouds Scattered Clouds 2300 ft
Mostly Cloudy 4100 ft
Overcast 6500 ft
Heat Index 79 °F
Dew Point 69 °F
Humidity 76%
Rainfall 0.11 in
Snow Depth Not available.
UV 3 out of 12
Pollen 4.90 out of 12
Air Quality Not available.
Flu Activity Sporadic
METAR KEVV 251854Z 20009KT 10SM SCT023 BKN041 OVC065 24/19 A3010 RMK AO2 SLP187 T02440189

More Conditions Fewer Conditions

10-Day Weather Forecast

Almanac

Astronomy

May. 25, 2015 Rise Set
Actual Time
Civil Twilight
Nautical Twilight
Astronomical Twilight
Moon
Length of Visible Light
Length of Day
Tomorrow will be .
, % of the Moon is Illuminated

Today's Extremes

State Highs State Lows

Community

WunderPhotos

Upload Photos

1,824,100 photos uploaded!

WunderBlogs® & News

Nearby

Air Quality

  Air Quality AQ Index Pollutant
Not available.

Snow Depth

Station Depth Elevation

Earthquake Activity

City Distance Mag. Time & Date
Minimum magnitude displayed is 2.5.

Coastal Water Temperatures

Place Temperature

Stations

Nearby Weather Stations

Station Location Temp. Windchill Dew Point Humidity Wind Precip. Elev Updated Type